Time;durP1;ratioP1;P1;durP2;ratioP2;P2;SDS_P1;SDS_P2;PMS_P1;PMS_P2;Temp;Humidity;BMP_temperature;BMP_pressure;BME280_temperature;BME280_humidity;BME280_pressure;Samples;Min_cycle;Max_cycle;Signal;HPM_P1;HPM_P2
2023/10/24 00:01:56;;;;;;;;;;;;;;;8.85;100.00;100444.69;4939869;28;20028;-78
2023/10/24 00:04:41;;;;;;;;;;;;;;;8.85;100.00;100436.78;4942583;28;20011;-77
2023/10/24 00:07:27;;;;;;;;;;;;;;;8.83;100.00;100436.84;4939664;28;19934;-76
2023/10/24 00:10:13;;;;;;;;;;;;;;;8.83;100.00;100428.91;4941195;28;19931;-78
2023/10/24 00:12:58;;;;;;;;;;;;;;;8.83;100.00;100436.84;4936899;29;19923;-78
2023/10/24 00:15:44;;;;;;;;;;;;;;;8.84;100.00;100437.72;4912708;29;19931;-77
2023/10/24 00:18:30;;;;;;;;;;;;;;;8.83;100.00;100431.56;4938113;29;20001;-77
2023/10/24 00:21:16;;;;;;;;;;;;;;;8.83;100.00;100426.28;4922967;28;20462;-76
2023/10/24 00:24:02;;;;;;;;;;;;;;;8.85;100.00;100428.84;4923979;29;20538;-75
2023/10/24 00:26:47;;;;;;;;;;;;;;;8.87;100.00;100423.50;4940839;29;19934;-76
2023/10/24 00:29:33;;;;;;;;;;;;;;;8.88;100.00;100419.94;4942260;28;21913;-78
2023/10/24 00:32:19;;;;;;;;;;;;;;;8.87;100.00;100413.78;4941375;28;19934;-78
2023/10/24 00:35:05;;;;;;;;;;;;;;;8.87;100.00;100402.41;4925114;29;19938;-78
2023/10/24 00:37:50;;;;;;;;;;;;;;;8.86;100.00;100398.03;4939667;29;21516;-78
2023/10/24 00:40:39;;;;;;;;;;;;;;;8.86;100.00;100392.75;4939714;28;19930;-78
2023/10/24 00:43:24;;;;;;;;;;;;;;;8.83;100.00;100394.59;4920253;29;19957;-78
2023/10/24 00:46:10;;;;;;;;;;;;;;;8.81;100.00;100391.19;4938376;29;19942;-77
2023/10/24 00:48:56;;;;;;;;;;;;;;;8.79;100.00;100382.50;4912518;29;20302;-78
2023/10/24 00:51:44;;;;;;;;;;;;;;;8.78;100.00;100379.91;4938004;28;20321;-77
2023/10/24 00:54:30;;;;;;;;;;;;;;;8.75;100.00;100369.47;4909633;29;19927;-78
2023/10/24 00:57:16;;;;;;;;;;;;;;;8.74;100.00;100371.28;4939928;29;19982;-78
2023/10/24 01:00:02;;;;;;;;;;;;;;;8.74;100.00;100373.03;4939053;29;19977;-77
2023/10/24 01:02:48;;;;;;;;;;;;;;;8.73;100.00;100374.84;4936871;28;20573;-77
2023/10/24 01:05:34;;;;;;;;;;;;;;;8.72;100.00;100370.47;4921731;29;19941;-78
2023/10/24 01:08:19;;;;;;;;;;;;;;;8.72;100.00;100357.25;4939429;28;19929;-78
2023/10/24 01:11:05;;;;;;;;;;;;;;;8.73;100.00;100363.41;4938891;28;19934;-77
2023/10/24 01:13:51;;;;;;;;;;;;;;;8.72;100.00;100359.06;4922606;29;19931;-77
2023/10/24 01:16:43;;;;;;;;;;;;;;;8.71;100.00;100342.38;4936763;28;19926;-77
2023/10/24 01:19:29;;;;;;;;;;;;;;;8.71;100.00;100347.66;4938388;28;19935;-77
2023/10/24 01:22:14;;;;;;;;;;;;;;;8.72;100.00;100349.34;4940901;28;20049;-77
2023/10/24 01:25:00;;;;;;;;;;;;;;;8.72;100.00;100344.06;4939842;28;19931;-77
2023/10/24 01:27:53;;;;;;;;;;;;;;;8.72;100.00;100344.06;4936276;28;19937;-75
2023/10/24 01:30:39;;;;;;;;;;;;;;;8.72;100.00;100338.78;4935555;28;20377;-76
2023/10/24 01:33:24;;;;;;;;;;;;;;;8.73;100.00;100334.38;4935626;28;19931;-77
2023/10/24 01:36:10;;;;;;;;;;;;;;;8.71;100.00;100318.63;4937065;28;19934;-76
2023/10/24 01:38:56;;;;;;;;;;;;;;;8.71;100.00;100315.97;4939888;29;19930;-76
2023/10/24 01:41:42;;;;;;;;;;;;;;;8.71;100.00;100312.50;4938652;29;19930;-77
2023/10/24 01:44:27;;;;;;;;;;;;;;;8.71;100.00;100307.22;4923030;29;21930;-77
2023/10/24 01:47:13;;;;;;;;;;;;;;;8.70;100.00;100298.44;4936404;29;20011;-75
2023/10/24 01:49:59;;;;;;;;;;;;;;;8.68;100.00;100292.38;4937583;29;19942;-76
2023/10/24 01:52:45;;;;;;;;;;;;;;;8.69;100.00;100291.44;4909030;29;20118;-75
2023/10/24 01:55:30;;;;;;;;;;;;;;;8.68;100.00;100284.47;4939347;28;19927;-75
2023/10/24 01:58:16;;;;;;;;;;;;;;;8.69;100.00;100275.59;4940332;28;19938;-76
2023/10/24 02:01:01;;;;;;;;;;;;;;;8.69;100.00;100270.34;4936358;28;19938;-76
2023/10/24 02:03:47;;;;;;;;;;;;;;;8.68;100.00;100263.34;4938744;28;19935;-77
2023/10/24 02:06:33;;;;;;;;;;;;;;;8.68;100.00;100260.72;4934144;29;19935;-76
2023/10/24 02:09:18;;;;;;;;;;;;;;;8.69;100.00;100259.78;4937749;29;19937;-76
2023/10/24 02:12:04;;;;;;;;;;;;;;;8.69;100.00;100251.84;4940227;28;19937;-78
2023/10/24 02:14:51;;;;;;;;;;;;;;;8.69;100.00;100249.22;4926690;28;20408;-76
2023/10/24 02:17:37;;;;;;;;;;;;;;;8.68;100.00;100245.72;4937608;28;19933;-77
2023/10/24 02:20:22;;;;;;;;;;;;;;;8.68;100.00;100243.06;4938190;28;19937;-77
2023/10/24 02:23:08;;;;;;;;;;;;;;;8.67;100.00;100240.53;4935379;28;19930;-77
2023/10/24 02:25:54;;;;;;;;;;;;;;;8.69;100.00;100246.59;4941542;28;19930;-75
2023/10/24 02:28:39;;;;;;;;;;;;;;;8.67;100.00;100241.38;4938154;29;19930;-77
2023/10/24 02:31:25;;;;;;;;;;;;;;;8.69;100.00;100234.25;4936616;28;19942;-77
2023/10/24 02:34:10;;;;;;;;;;;;;;;8.71;100.00;100236.78;4922669;29;19954;-75
2023/10/24 02:36:56;;;;;;;;;;;;;;;8.72;100.00;100222.66;4939154;28;19931;-76
2023/10/24 02:39:42;;;;;;;;;;;;;;;8.73;100.00;100216.50;4939921;29;20038;-77
2023/10/24 02:42:27;;;;;;;;;;;;;;;8.74;100.00;100207.63;4935185;28;19930;-76
2023/10/24 02:45:13;;;;;;;;;;;;;;;8.75;100.00;100203.19;4943634;28;19934;-76
2023/10/24 02:47:59;;;;;;;;;;;;;;;8.76;100.00;100195.22;4939936;28;19926;-77
2023/10/24 02:50:44;;;;;;;;;;;;;;;8.78;100.00;100203.91;4939610;29;19930;-76
2023/10/24 02:53:30;;;;;;;;;;;;;;;8.78;100.00;100190.69;4940899;28;19934;-77
2023/10/24 02:56:16;;;;;;;;;;;;;;;8.81;100.00;100198.50;4922010;29;20377;-76
2023/10/24 02:59:01;;;;;;;;;;;;;;;8.83;100.00;100182.59;4924704;29;20474;-77
2023/10/24 03:01:47;;;;;;;;;;;;;;;8.83;100.00;100186.06;4922890;28;20322;-78
2023/10/24 03:04:35;;;;;;;;;;;;;;;8.85;100.00;100180.72;4939494;28;19965;-77
2023/10/24 03:07:23;;;;;;;;;;;;;;;8.86;100.00;100177.16;4938151;28;20054;-78
2023/10/24 03:10:09;;;;;;;;;;;;;;;8.88;100.00;100169.16;4924525;29;20376;-78
2023/10/24 03:12:55;;;;;;;;;;;;;;;8.88;100.00;100174.44;4938894;28;19930;-78
2023/10/24 03:15:41;;;;;;;;;;;;;;;8.90;100.00;100167.28;4924680;29;20386;-77
2023/10/24 03:18:26;;;;;;;;;;;;;;;8.91;100.00;100159.31;4939193;28;19937;-78
2023/10/24 03:21:12;;;;;;;;;;;;;;;8.92;100.00;100149.56;4940740;29;19971;-77
2023/10/24 03:23:58;;;;;;;;;;;;;;;8.93;100.00;100153.97;4938877;29;20548;-78
2023/10/24 03:26:44;;;;;;;;;;;;;;;8.93;100.00;100152.16;4940529;28;19957;-77
2023/10/24 03:29:33;;;;;;;;;;;;;;;8.95;100.00;100147.63;4923729;29;19977;-77
2023/10/24 03:32:19;;;;;;;;;;;;;;;8.97;100.00;100142.28;4939406;28;20025;-78
2023/10/24 03:35:05;;;;;;;;;;;;;;;8.99;100.00;100145.69;4939186;29;20437;-77
2023/10/24 03:37:51;;;;;;;;;;;;;;;9.02;100.00;100144.69;4924703;29;20409;-77
2023/10/24 03:40:37;;;;;;;;;;;;;;;9.04;100.00;100142.84;4940776;28;20133;-77
2023/10/24 03:43:23;;;;;;;;;;;;;;;9.05;100.00;100145.41;4938469;28;20358;-79
2023/10/24 03:46:09;;;;;;;;;;;;;;;9.07;100.00;100138.28;4940304;29;20005;-78
2023/10/24 03:48:57;;;;;;;;;;;;;;;9.10;100.00;100138.09;4939753;29;20326;-77
2023/10/24 03:51:43;;;;;;;;;;;;;;;9.13;100.00;100141.50;4941481;28;20342;-77
2023/10/24 03:54:29;;;;;;;;;;;;;;;9.15;100.00;100134.38;4938357;29;20481;-77
2023/10/24 03:57:15;;;;;;;;;;;;;;;9.16;100.00;100136.09;4939799;29;20400;-77
2023/10/24 04:00:01;;;;;;;;;;;;;;;9.19;100.00;100138.56;4927099;28;20293;-77
2023/10/24 04:02:50;;;;;;;;;;;;;;;9.21;100.00;100140.19;4937778;28;20045;-78
2023/10/24 04:05:35;;;;;;;;;;;;;;;9.22;100.00;100136.63;4939839;29;19934;-77
2023/10/24 04:08:21;;;;;;;;;;;;;;;9.23;100.00;100137.50;4938332;29;19935;-78
2023/10/24 04:11:14;;;;;;;;;;;;;;;9.25;100.00;100138.25;4940040;28;20619;-77
2023/10/24 04:13:59;;;;;;;;;;;;;;;9.27;100.00;100139.06;4939725;29;21894;-77
2023/10/24 04:16:45;;;;;;;;;;;;;;;9.27;100.00;100135.53;4926641;29;19927;-78
2023/10/24 04:19:31;;;;;;;;;;;;;;;9.29;100.00;100134.53;4940648;28;20503;-77
2023/10/24 04:22:17;;;;;;;;;;;;;;;9.32;100.00;100126.44;4939875;28;19937;-77
2023/10/24 04:25:03;;;;;;;;;;;;;;;9.34;100.00;100126.38;4914584;29;20398;-78
2023/10/24 04:27:49;;;;;;;;;;;;;;;9.36;100.00;100133.28;4925037;29;19922;-76
2023/10/24 04:30:37;;;;;;;;;;;;;;;9.38;100.00;100123.47;4922198;29;19954;-78
2023/10/24 04:33:23;;;;;;;;;;;;;;;9.43;100.00;100125.03;4940382;28;19938;-78
2023/10/24 04:36:10;;;;;;;;;;;;;;;9.46;100.00;100119.56;4938690;29;20397;-77
2023/10/24 04:38:56;;;;;;;;;;;;;;;9.48;100.00;100121.22;4924597;29;19930;-78
2023/10/24 04:41:41;;;;;;;;;;;;;;;9.49;100.00;100120.28;4940853;28;19934;-76
2023/10/24 04:44:27;;;;;;;;;;;;;;;9.51;100.00;100113.13;4922693;29;19930;-76
2023/10/24 04:47:13;;;;;;;;;;;;;;;9.54;100.00;100109.50;4939102;28;21937;-77
2023/10/24 04:49:59;;;;;;;;;;;;;;;9.56;100.00;100098.81;4914810;29;20290;-76
2023/10/24 04:52:44;;;;;;;;;;;;;;;9.58;100.00;100095.16;4941033;28;19939;-78
2023/10/24 04:55:30;;;;;;;;;;;;;;;9.59;100.00;100102.16;4927779;29;19936;-78
2023/10/24 04:58:16;;;;;;;;;;;;;;;9.62;100.00;100096.72;4944839;28;19926;-78
2023/10/24 05:01:02;;;;;;;;;;;;;;;9.64;100.00;100100.13;4927689;29;19934;-77
2023/10/24 05:03:47;;;;;;;;;;;;;;;9.68;100.00;100094.66;4943734;28;19930;-77
2023/10/24 05:06:33;;;;;;;;;;;;;;;9.69;100.00;100097.22;4927312;29;19935;-77
2023/10/24 05:09:18;;;;;;;;;;;;;;;9.72;100.00;100090.91;4945043;28;19930;-77
2023/10/24 05:12:05;;;;;;;;;;;;;;;9.75;100.00;100094.25;4929617;28;19937;-77
2023/10/24 05:14:53;;;;;;;;;;;;;;;9.78;100.00;100085.31;4938991;28;19938;-78
2023/10/24 05:17:40;;;;;;;;;;;;;;;9.80;100.00;100091.34;4941520;29;19977;-77
2023/10/24 05:20:28;;;;;;;;;;;;;;;9.81;100.00;100082.47;4927429;28;20016;-77
2023/10/24 05:23:14;;;;;;;;;;;;;;;9.83;100.00;100082.41;4939028;29;19941;-77
2023/10/24 05:26:00;;;;;;;;;;;;;;;9.84;100.00;100084.09;4939847;29;19934;-77
2023/10/24 05:28:45;;;;;;;;;;;;;;;9.85;100.00;100076.09;4926442;29;19931;-78
2023/10/24 05:31:31;;;;;;;;;;;;;;;9.85;100.00;100070.81;4940444;28;20493;-76
2023/10/24 05:34:17;;;;;;;;;;;;;;;9.86;100.00;100071.69;4927425;29;19934;-78
2023/10/24 05:37:02;;;;;;;;;;;;;;;9.87;100.00;100062.81;4925992;29;19934;-77
2023/10/24 05:39:48;;;;;;;;;;;;;;;9.86;100.00;100066.38;4945413;29;19937;-77
2023/10/24 05:42:34;;;;;;;;;;;;;;;9.87;100.00;100065.44;4942584;28;19935;-78
2023/10/24 05:45:22;;;;;;;;;;;;;;;9.88;100.00;100065.38;4946952;28;20013;-78
2023/10/24 05:48:07;;;;;;;;;;;;;;;9.87;100.00;100055.72;4944380;29;19930;-76
2023/10/24 05:50:53;;;;;;;;;;;;;;;9.87;100.00;100055.72;4943346;28;19922;-76
2023/10/24 05:53:39;;;;;;;;;;;;;;;9.87;100.00;100050.41;4941332;29;19938;-77
2023/10/24 05:56:24;;;;;;;;;;;;;;;9.87;100.00;100058.34;4942078;29;19934;-78
2023/10/24 05:59:10;;;;;;;;;;;;;;;9.87;100.00;100057.53;4942815;29;19969;-78
2023/10/24 06:01:56;;;;;;;;;;;;;;;9.88;100.00;100053.94;4943359;28;19933;-78
2023/10/24 06:04:41;;;;;;;;;;;;;;;9.87;100.00;100055.72;4928007;28;19938;-76
2023/10/24 06:07:27;;;;;;;;;;;;;;;9.87;100.00;100050.41;4926076;29;20507;-77
2023/10/24 06:10:13;;;;;;;;;;;;;;;9.86;100.00;100054.00;4924395;29;19922;-77
2023/10/24 06:12:58;;;;;;;;;;;;;;;9.87;100.00;100054.88;4941813;28;19937;-77
2023/10/24 06:15:44;;;;;;;;;;;;;;;9.86;100.00;100051.38;4938519;28;20000;-77
2023/10/24 06:18:30;;;;;;;;;;;;;;;9.85;100.00;100054.09;4941373;28;20297;-76
2023/10/24 06:21:15;;;;;;;;;;;;;;;9.85;100.00;100054.94;4939439;28;19981;-78
2023/10/24 06:24:04;;;;;;;;;;;;;;;9.85;100.00;100060.25;4940433;29;19938;-78
2023/10/24 06:26:51;;;;;;;;;;;;;;;9.85;100.00;100054.09;4938534;29;20346;-78
2023/10/24 06:29:38;;;;;;;;;;;;;;;9.83;100.00;100051.53;4941927;28;20313;-78
2023/10/24 06:32:35;;;;;;;;;;;;;;;9.82;100.00;100044.56;4941089;28;19965;-76
2023/10/24 06:35:20;;;;;;;;;;;;;;;9.83;100.00;100051.53;4938803;28;20053;-78
2023/10/24 06:38:06;;;;;;;;;;;;;;;9.82;100.00;100049.84;4939268;28;19953;-76
2023/10/24 06:40:52;;;;;;;;;;;;;;;9.81;100.00;100052.56;4941221;29;20081;-77
2023/10/24 06:43:39;;;;;;;;;;;;;;;9.80;100.00;100056.97;4937151;28;19935;-77
2023/10/24 06:46:27;;;;;;;;;;;;;;;9.79;100.00;100055.28;4925980;28;19937;-77
2023/10/24 06:49:18;;;;;;;;;;;;;;;9.78;100.00;100062.38;4924975;28;21464;-80
2023/10/24 06:52:04;;;;;;;;;;;;;;;9.77;100.00;100059.81;4940682;28;19941;-77
2023/10/24 06:54:50;;;;;;;;;;;;;;;9.75;100.00;100062.53;4940009;29;20037;-77
2023/10/24 06:57:36;;;;;;;;;;;;;;;9.75;100.00;100061.69;4940589;28;19938;-85
2023/10/24 07:00:22;;;;;;;;;;;;;;;9.75;100.00;100053.75;4924197;29;19956;-76
2023/10/24 07:03:13;;;;;;;;;;;;;;;9.74;100.00;100067.88;4939294;28;20318;-78
2023/10/24 07:05:58;;;;;;;;;;;;;;;9.71;100.00;100063.66;4930297;28;19926;-76
2023/10/24 07:08:46;;;;;;;;;;;;;;;9.71;100.00;100070.72;4935736;29;19934;-76
2023/10/24 07:11:32;;;;;;;;;;;;;;;9.70;100.00;100071.66;4919400;28;20014;-76
2023/10/24 07:14:18;;;;;;;;;;;;;;;9.68;100.00;100068.22;4915848;29;19934;-76
2023/10/24 07:17:03;;;;;;;;;;;;;;;9.67;100.00;100069.16;4931154;28;19937;-76
2023/10/24 07:19:49;;;;;;;;;;;;;;;9.66;100.00;100070.97;4905723;28;19977;-76
2023/10/24 07:22:38;;;;;;;;;;;;;;;9.66;100.00;100073.63;4934421;29;19941;-77
2023/10/24 07:25:24;;;;;;;;;;;;;;;9.64;100.00;100068.41;4937563;28;20555;-76
2023/10/24 07:28:10;;;;;;;;;;;;;;;9.65;100.00;100070.09;4923519;29;19985;-75
2023/10/24 07:30:55;;;;;;;;;;;;;;;9.64;100.00;100063.13;4939366;28;19923;-76
2023/10/24 07:33:41;;;;;;;;;;;;;;;9.64;100.00;100071.03;4937525;28;19934;-76
2023/10/24 07:36:30;;;;;;;;;;;;;;;9.64;100.00;100067.53;4934496;28;20496;-76
2023/10/24 07:39:16;;;;;;;;;;;;;;;9.64;100.00;100064.88;4935742;28;20298;-76
2023/10/24 07:42:02;;;;;;;;;;;;;;;9.64;100.00;100078.97;4921866;29;19930;-75
2023/10/24 07:44:48;;;;;;;;;;;;;;;9.63;100.00;100077.28;4917975;28;19954;-75
2023/10/24 07:47:34;;;;;;;;;;;;;;;9.62;100.00;100075.56;4922939;29;19930;-75
2023/10/24 07:50:19;;;;;;;;;;;;;;;9.62;100.00;100075.56;4938078;28;19927;-75
2023/10/24 07:53:05;;;;;;;;;;;;;;;9.61;100.00;100076.50;4938082;28;19954;-76
2023/10/24 07:55:51;;;;;;;;;;;;;;;9.62;100.00;100072.06;4932932;28;19989;-75
2023/10/24 07:58:37;;;;;;;;;;;;;;;9.61;100.00;100073.00;4934060;28;19933;-75
2023/10/24 08:01:22;;;;;;;;;;;;;;;9.60;100.00;100069.50;4935920;28;19951;-74
2023/10/24 08:04:08;;;;;;;;;;;;;;;9.61;100.00;100068.59;4919698;29;19931;-76
2023/10/24 08:06:54;;;;;;;;;;;;;;;9.62;100.00;100064.13;4936228;28;19938;-76
2023/10/24 08:09:39;;;;;;;;;;;;;;;9.62;100.00;100061.50;4934088;28;19934;-76
2023/10/24 08:12:25;;;;;;;;;;;;;;;9.62;100.00;100054.44;4903272;29;19930;-76
2023/10/24 08:15:13;;;;;;;;;;;;;;;9.62;100.00;100062.34;4919519;29;20795;-75
2023/10/24 08:17:59;;;;;;;;;;;;;;;9.62;100.00;100061.50;4915284;28;20394;-76
2023/10/24 08:20:45;;;;;;;;;;;;;;;9.63;100.00;100063.19;4938716;29;19935;-77
2023/10/24 08:23:31;;;;;;;;;;;;;;;9.62;100.00;100054.44;4936754;29;19926;-76
2023/10/24 08:26:16;;;;;;;;;;;;;;;9.63;100.00;100050.84;4920729;29;20007;-78
2023/10/24 08:29:02;;;;;;;;;;;;;;;9.64;100.00;100051.69;4938147;28;20013;-77
2023/10/24 08:31:50;;;;;;;;;;;;;;;9.64;100.00;100049.91;4940418;28;20009;-78
2023/10/24 08:34:36;;;;;;;;;;;;;;;9.67;100.00;100040.09;4942094;28;19941;-77
2023/10/24 08:37:22;;;;;;;;;;;;;;;9.67;100.00;100034.81;4938926;28;19934;-78
2023/10/24 08:40:08;;;;;;;;;;;;;;;9.69;100.00;100032.94;4928420;28;20021;-77
2023/10/24 08:42:54;;;;;;;;;;;;;;;9.69;100.00;100048.81;4940013;29;21223;-77
2023/10/24 08:45:39;;;;;;;;;;;;;;;9.71;100.00;100052.22;4941971;28;19930;-77
2023/10/24 08:48:25;;;;;;;;;;;;;;;9.72;100.00;100044.22;4942412;28;20817;-78
2023/10/24 08:51:11;;;;;;;;;;;;;;;9.73;100.00;100045.91;4943361;29;20426;-79
2023/10/24 08:53:56;;;;;;;;;;;;;;;9.74;100.00;100046.75;4941779;28;20599;-77
2023/10/24 08:56:42;;;;;;;;;;;;;;;9.73;100.00;100045.03;4937820;28;19934;-77
2023/10/24 08:59:28;;;;;;;;;;;;;;;9.72;100.00;100044.22;4939994;28;19954;-77
2023/10/24 09:02:14;;;;;;;;;;;;;;;9.72;100.00;100036.28;4935012;28;19927;-77
2023/10/24 09:05:00;;;;;;;;;;;;;;;9.75;100.00;100027.34;4942123;28;19930;-78
2023/10/24 09:07:48;;;;;;;;;;;;;;;9.78;100.00;100024.50;4938393;29;19926;-78
2023/10/24 09:10:34;;;;;;;;;;;;;;;9.81;100.00;100037.53;4941630;28;19938;-78
2023/10/24 09:13:19;;;;;;;;;;;;;;;9.82;100.00;100033.13;4912185;29;20013;-78
2023/10/24 09:16:06;;;;;;;;;;;;;;;9.82;100.00;100044.56;4941612;28;19933;-77
2023/10/24 09:18:52;;;;;;;;;;;;;;;9.82;100.00;100033.97;4924522;29;19934;-78
2023/10/24 09:21:37;;;;;;;;;;;;;;;9.84;100.00;100025.94;4942486;28;19934;-78
2023/10/24 09:24:23;;;;;;;;;;;;;;;9.85;100.00;100033.81;4942471;29;20726;-78
2023/10/24 09:27:09;;;;;;;;;;;;;;;9.86;100.00;100035.50;4940720;29;19930;-77
2023/10/24 09:29:54;;;;;;;;;;;;;;;9.87;100.00;100042.50;4924559;29;19968;-78
2023/10/24 09:32:41;;;;;;;;;;;;;;;9.88;100.00;100033.66;4938272;28;19930;-76
2023/10/24 09:35:27;;;;;;;;;;;;;;;9.89;100.00;100040.63;4926048;29;19970;-78
2023/10/24 09:38:13;;;;;;;;;;;;;;;9.90;100.00;100044.97;4923731;29;20021;-85
2023/10/24 09:40:59;;;;;;;;;;;;;;;9.90;100.00;100038.81;4934908;29;19966;-76
2023/10/24 09:43:47;;;;;;;;;;;;;;;9.90;100.00;100033.53;4914594;28;20305;-77
2023/10/24 09:46:32;;;;;;;;;;;;;;;9.92;100.00;100042.25;4927255;28;20001;-77
2023/10/24 09:49:18;;;;;;;;;;;;;;;9.92;100.00;100042.25;4928740;29;19974;-77
2023/10/24 09:52:04;;;;;;;;;;;;;;;9.91;100.00;100033.47;4940099;28;19934;-77
2023/10/24 09:54:50;;;;;;;;;;;;;;;9.91;100.00;100037.88;4943371;29;19935;-76
2023/10/24 09:57:36;;;;;;;;;;;;;;;9.92;100.00;100039.63;4941204;29;20017;-77
2023/10/24 10:00:22;;;;;;;;;;;;;;;9.92;100.00;100035.16;4929613;29;19933;-76
2023/10/24 10:03:07;;;;;;;;;;;;;;;9.95;100.00;100041.22;4911907;29;19937;-76
2023/10/24 10:05:53;;;;;;;;;;;;;;;9.97;100.00;100026.13;4928900;28;19994;-77
2023/10/24 10:08:42;;;;;;;;;;;;;;;9.97;100.00;100032.25;4924375;29;20500;-77
2023/10/24 10:11:27;;;;;;;;;;;;;;;10.00;100.00;100024.16;4923768;29;19930;-77
2023/10/24 10:14:19;;;;;;;;;;;;;;;10.04;100.00;100025.69;4941184;28;19962;-77
2023/10/24 10:17:31;;;;;;;;;;;;;;;10.09;100.00;100020.16;4925067;29;20278;-78
2023/10/24 10:20:31;;;;;;;;;;;;;;;10.10;100.00;100021.00;4927407;29;19930;-76
2023/10/24 10:23:29;;;;;;;;;;;;;;;10.11;100.00;100018.28;4937216;28;19930;-77
2023/10/24 10:26:16;;;;;;;;;;;;;;;10.09;100.00;100009.59;4939244;29;19976;-78
2023/10/24 10:29:10;;;;;;;;;;;;;;;10.09;100.00;100009.59;4920364;29;20017;-78
2023/10/24 10:32:09;;;;;;;;;;;;;;;10.11;100.00;100014.75;4935602;28;20538;-78
2023/10/24 10:34:54;;;;;;;;;;;;;;;10.09;100.00;100014.88;4942489;28;20494;-79
2023/10/24 10:37:40;;;;;;;;;;;;;;;10.10;100.00;100011.28;4924577;29;20452;-77
2023/10/24 10:40:28;;;;;;;;;;;;;;;10.09;100.00;100014.88;4936895;29;19928;-78
2023/10/24 10:43:28;;;;;;;;;;;;;;;10.09;100.00;100004.28;4938934;28;20366;-78
2023/10/24 10:46:20;;;;;;;;;;;;;;;10.10;100.00;100010.41;4933895;28;19934;-77
2023/10/24 10:49:07;;;;;;;;;;;;;;;10.10;100.00;100008.63;4941962;28;19935;-77
2023/10/24 10:51:52;;;;;;;;;;;;;;;10.11;100.00;100007.69;4938008;28;19937;-77
2023/10/24 10:54:48;;;;;;;;;;;;;;;10.15;100.00;100011.00;4939458;28;19974;-78
2023/10/24 10:57:37;;;;;;;;;;;;;;;10.18;100.00;100005.53;4924910;29;19984;-78
2023/10/24 11:00:23;;;;;;;;;;;;;;;10.20;100.00;100006.31;4925999;29;19930;-78
2023/10/24 11:03:29;;;;;;;;;;;;;;;10.22;100.00;100008.84;4938526;28;19927;-77
2023/10/24 11:06:15;;;;;;;;;;;;;;;10.26;100.00;100011.25;4937516;28;19937;-77
2023/10/24 11:09:09;;;;;;;;;;;;;;;10.30;100.00;100012.78;4922458;28;19922;-77
2023/10/24 11:12:13;;;;;;;;;;;;;;;10.33;100.00;100012.59;4921181;29;20318;-78
2023/10/24 11:15:14;;;;;;;;;;;;;;;10.36;100.00;100005.44;4938341;28;21991;-77
2023/10/24 11:18:00;;;;;;;;;;;;;;;10.38;100.00;100008.81;4919249;29;20342;-78
2023/10/24 11:20:46;;;;;;;;;;;;;;;10.38;100.00;99999.09;4935308;28;20335;-77
2023/10/24 11:23:32;;;;;;;;;;;;;;;10.41;100.00;100006.03;4923516;28;19926;-76
2023/10/24 11:26:18;;;;;;;;;;;;;;;10.41;100.00;99998.91;4922486;28;19935;-75
2023/10/24 11:29:05;;;;;;;;;;;;;;;10.42;100.00;99990.06;4924942;28;19968;-86
2023/10/24 11:31:50;;;;;;;;;;;;;;;10.43;100.00;99994.44;4910269;29;19926;-76
2023/10/24 11:34:36;;;;;;;;;;;;;;;10.43;100.00;99994.44;4928494;29;20037;-75
2023/10/24 11:37:22;;;;;;;;;;;;;;;10.42;100.00;99983.91;4919601;29;19958;-76
2023/10/24 11:40:08;;;;;;;;;;;;;;;10.42;100.00;99990.06;4937884;28;20081;-76
2023/10/24 11:43:02;;;;;;;;;;;;;;;10.43;100.00;99988.28;4937113;28;20002;-76
2023/10/24 11:45:47;;;;;;;;;;;;;;;10.42;100.00;99984.78;4921940;29;19978;-76
2023/10/24 11:48:33;;;;;;;;;;;;;;;10.45;100.00;99986.38;4937152;28;20929;-76
2023/10/24 11:51:19;;;;;;;;;;;;;;;10.44;100.00;99988.19;4935826;28;19926;-76
2023/10/24 11:54:05;;;;;;;;;;;;;;;10.44;100.00;99982.91;4933549;29;19941;-76
2023/10/24 11:56:51;;;;;;;;;;;;;;;10.47;100.00;99976.59;4917695;29;19946;-76
2023/10/24 11:59:37;;;;;;;;;;;;;;;10.49;100.00;99979.13;4919028;29;19930;-75
2023/10/24 12:02:22;;;;;;;;;;;;;;;10.50;100.00;99978.22;4936563;28;19927;-76
2023/10/24 12:05:09;;;;;;;;;;;;;;;10.50;100.00;99967.63;4934537;29;19935;-77
2023/10/24 12:07:59;;;;;;;;;;;;;;;10.50;100.00;99975.56;4920854;28;20054;-77
2023/10/24 12:10:51;;;;;;;;;;;;;;;10.50;100.00;99970.25;4920207;29;20373;-75
2023/10/24 12:13:36;;;;;;;;;;;;;;;10.49;100.00;99969.41;4920090;29;19922;-77
2023/10/24 12:16:26;;;;;;;;;;;;;;;10.48;100.00;99969.47;4921551;29;19928;-77
2023/10/24 12:19:12;;;;;;;;;;;;;;;10.46;100.00;99978.38;4934541;28;20339;-77
2023/10/24 12:21:58;;;;;;;;;;;;;;;10.44;100.00;99977.63;4937351;29;20386;-77
2023/10/24 12:24:43;;;;;;;;;;;;;;;10.45;100.00;99979.31;4939652;28;20015;-76
2023/10/24 12:27:29;;;;;;;;;;;;;;;10.45;100.00;99970.50;4937004;28;19934;-77
2023/10/24 12:30:15;;;;;;;;;;;;;;;10.45;100.00;99975.81;4918555;29;19990;-77
2023/10/24 12:33:01;;;;;;;;;;;;;;;10.44;100.00;99972.31;4939519;28;19938;-77
2023/10/24 12:35:49;;;;;;;;;;;;;;;10.43;100.00;99975.91;4919684;29;19926;-77
2023/10/24 12:38:35;;;;;;;;;;;;;;;10.43;100.00;99975.91;4937647;29;20017;-77
2023/10/24 12:41:21;;;;;;;;;;;;;;;10.43;100.00;99975.91;4939242;29;20611;-76
2023/10/24 12:44:06;;;;;;;;;;;;;;;10.42;100.00;99973.31;4936760;28;19930;-77
2023/10/24 12:46:52;;;;;;;;;;;;;;;10.40;100.00;99973.41;4936107;29;19927;-76
2023/10/24 12:49:37;;;;;;;;;;;;;;;10.38;100.00;99974.44;4939028;28;20158;-76
2023/10/24 12:52:24;;;;;;;;;;;;;;;10.34;100.00;99971.13;4936995;28;19985;-76
2023/10/24 12:55:10;;;;;;;;;;;;;;;10.31;100.00;99966.00;4936362;28;19946;-77
2023/10/24 12:57:55;;;;;;;;;;;;;;;10.32;100.00;99962.44;4934796;29;20110;-77
2023/10/24 13:00:41;;;;;;;;;;;;;;;10.31;100.00;99966.00;4935171;29;19941;-76
2023/10/24 13:03:27;;;;;;;;;;;;;;;10.30;100.00;99964.31;4937464;28;19926;-76
2023/10/24 13:06:12;;;;;;;;;;;;;;;10.30;100.00;99961.66;4920599;29;20321;-78
2023/10/24 13:08:58;;;;;;;;;;;;;;;10.30;100.00;99964.31;4919050;29;20002;-76
2023/10/24 13:11:47;;;;;;;;;;;;;;;10.30;100.00;99964.31;4937092;29;19941;-77
2023/10/24 13:14:35;;;;;;;;;;;;;;;10.31;100.00;99963.38;4921232;28;19937;-76
2023/10/24 13:17:21;;;;;;;;;;;;;;;10.31;100.00;99958.91;4940366;29;19935;-78
2023/10/24 13:20:09;;;;;;;;;;;;;;;10.32;100.00;99959.78;4941911;28;19941;-77
2023/10/24 13:22:55;;;;;;;;;;;;;;;10.35;100.00;99961.41;4923203;29;20671;-76
2023/10/24 13:25:40;;;;;;;;;;;;;;;10.33;100.00;99958.84;4939376;28;20444;-75
2023/10/24 13:28:26;;;;;;;;;;;;;;;10.33;100.00;99956.19;4939548;28;20574;-78
2023/10/24 13:31:12;;;;;;;;;;;;;;;10.36;100.00;99952.50;4926623;29;20456;-77
2023/10/24 13:33:58;;;;;;;;;;;;;;;10.36;100.00;99955.16;4940718;29;19934;-78
2023/10/24 13:36:45;;;;;;;;;;;;;;;10.36;100.00;99953.38;4938184;28;19922;-76
2023/10/24 13:39:31;;;;;;;;;;;;;;;10.37;100.00;99959.50;4936301;28;20402;-75
2023/10/24 13:42:19;;;;;;;;;;;;;;;10.37;100.00;99955.06;4938783;29;20090;-76
2023/10/24 13:45:05;;;;;;;;;;;;;;;10.37;100.00;99960.38;4938390;29;21871;-77
2023/10/24 13:47:53;;;;;;;;;;;;;;;10.37;100.00;99952.44;4939541;28;19930;-76
2023/10/24 13:50:39;;;;;;;;;;;;;;;10.36;100.00;99953.38;4937707;29;19993;-74
2023/10/24 13:53:24;;;;;;;;;;;;;;;10.35;100.00;99949.00;4939852;28;20587;-76
2023/10/24 13:56:12;;;;;;;;;;;;;;;10.34;100.00;99955.25;4939138;29;19931;-76
2023/10/24 13:58:58;;;;;;;;;;;;;;;10.33;100.00;99954.41;4939849;29;19973;-78
2023/10/24 14:01:44;;;;;;;;;;;;;;;10.31;100.00;99950.97;4940829;28;19937;-76
2023/10/24 14:04:29;;;;;;;;;;;;;;;10.30;100.00;99949.28;4912647;28;20452;-76
2023/10/24 14:07:15;;;;;;;;;;;;;;;10.31;100.00;99956.25;4939962;29;20612;-75
2023/10/24 14:10:01;;;;;;;;;;;;;;;10.31;100.00;99952.78;4943056;28;19930;-77
2023/10/24 14:12:47;;;;;;;;;;;;;;;10.30;100.00;99945.78;4940972;29;19931;-76
2023/10/24 14:15:32;;;;;;;;;;;;;;;10.31;100.00;99947.50;4941391;29;19942;-76